Nome Airport
PAOM : now visible

Airfield :











YOU CAN JOIN US ON...

 
LOGIN :

Register | Disclaimer

   EN    FR    IT 

 









Legend :    VFR   Marginal VFR   IFR   Intensive IFR   Very Intensive IFR
Visi :
Ceiling :
>= 8 km
>= 3000ft
5 to 8 km
1000 to 3000 ft
1500m to 5 km
500 to 1000 ft
800 to 1500m
200 to 500 ft
< 800m
< 200 ft
Symbols :   Thunderstorms  Fog  Heavy snow  Heavy precipitations  Wind > 20 kt






- Airport Elevation : 37 ft
- IATA code : OME


PAOM - Nome

CURRENT METAR :
  • 091753Z 08015KT 7SM OVC018 M12/M14 A3017 RMK AO2 SLP218 60000 I1000 I6000 T11171144 11117 21178 58006

EXPIRED METARs :
  • 091653Z 07017KT 5SM BR OVC021 M12/M14 A3018 RMK AO2 SNE50 SLP222 P0000 T11221144
  • 091617Z 08016KT 4SM -SN BR BKN024 OVC031 M12/M14 A3019 RMK AO2 P0000 T11221144
  • 091553Z 08014KT 4SM -SN BR BKN030 OVC034 M12/M14 A3019 RMK AO2 SNB16 SLP224 P0000 T11221144

TAF PAOM
Valid from the 09 at 18:00 until the 10 at 18:00 UTC


091735Z 0918/1018 08016KT 4SM -SN BR OVC020
FM092200 08009KT 1 1/2SM -SN BR OVC007
FM100500 06008KT 1 1/2SM -SN BR OVC015
FM100900 05006KT 4SM -SN BR OVC015
FM101600 06005KT 1 1/2SM -SN BR OVC015



MET'MAP, your aeronautical weather chart ! - Copyright ORBIFLY December 2007 - Disclaimer

ORBIFLY MET'MAP TEAM :

Programming & Development : Alexandra Zaïnal
Concept & original design : Baudouin d'Aumeries
Assistance for programming : Marc-Olivier Méhu
Technical & hardware support : Manuel Goepfert

Contact : metmap@orbifly.com




SOURCES & CREDITS :

   NOAA       Earth
Advisory